Platitera Tonouranon — SX7180 — position and weather

sailwx.info

Track history (hours):
 
Tides and Currents Weather Stations Pressure Air Temp Water Temp Dewpoint Dewpoint Depression Visibility Wind Speed Wind Dir Waves Ship Positions

Platitera Tonouranon

Last reported at 2014-Aug-01 06:32 UTC. Time now 2014-Aug-01 09:48 UTC.
Position N 37°45' E 023°34'.

Length 55 m; draft 3.8 m.

Type: Ship (hazmat cat A). MMSI: 237038200.

Date/timePositionNaut miles runAvg speedWind from/ knotsBaromVisibWave heightAir tempDewpointWater temp
2014-Aug-01 06:32N 37°45' E 023°34'1010.5
2014-Aug-01 05:33N 37°54' E 023°39'3 2.6
2014-Aug-01 04:32N 37°56' E 023°41'2 0.2
2014-Jul-31 16:33N 37°54' E 023°39'1111.2
2014-Jul-31 15:33N 37°48' E 023°28'3 1.6
2014-Jul-31 13:25N 37°45' E 023°26'10 9.3
2014-Jul-31 12:18N 37°34' E 023°26'10 5.5
2014-Jul-31 10:26N 37°25' E 023°32'20 4.8
2014-Jul-31 06:15N 37°45' E 023°36'811.1
2014-Jul-31 05:33N 37°52' E 023°39'4 4.3
2014-Jul-31 04:33N 37°56' E 023°41'2 0.2
2014-Jul-30 16:33N 37°54' E 023°39'1211.9
2014-Jul-30 15:33N 37°47' E 023°27'3 2.8
2014-Jul-30 14:33N 37°45' E 023°26'0 0.0
2014-Jul-30 13:31N 37°45' E 023°26'9 8.6
2014-Jul-30 12:30N 37°36' E 023°26'6 1.0
2014-Jul-30 07:04N 37°36' E 023°33'611.9
2014-Jul-30 06:32N 37°43' E 023°35'1010.5
2014-Jul-30 05:33N 37°52' E 023°39'4 4.0
2014-Jul-30 04:33N 37°56' E 023°41'2 0.2
2014-Jul-29 16:33N 37°55' E 023°39'1212.1
2014-Jul-29 15:33N 37°47' E 023°27'3 2.6
2014-Jul-29 14:33N 37°45' E 023°26'0 0.0
2014-Jul-29 13:28N 37°45' E 023°26'7 7.7
2014-Jul-29 12:33N 37°38' E 023°26'8 1.3
2014-Jul-29 06:33N 37°43' E 023°33'1110.5
2014-Jul-29 05:33N 37°53' E 023°37'4 4.2
2014-Jul-29 04:33N 37°56' E 023°41'2 0.1
2014-Jul-28 16:33N 37°55' E 023°39'1212.1
2014-Jul-28 15:33N 37°48' E 023°28'3 1.6
2014-Jul-28 13:31N 37°45' E 023°26'8 7.9
2014-Jul-28 12:31N 37°37' E 023°26'11 5.5
2014-Jul-28 10:32N 37°27' E 023°32'18 4.2
2014-Jul-28 06:18N 37°45' E 023°35'911.6
2014-Jul-28 05:33N 37°53' E 023°38'4 4.1
2014-Jul-28 04:33N 37°56' E 023°41'0 0.0
2014-Jul-27 17:12N 37°56' E 023°41'5 7.4
2014-Jul-27 16:33N 37°53' E 023°36'1211.9
2014-Jul-27 15:33N 37°45' E 023°25'1 0.8
2014-Jul-27 14:28N 37°45' E 023°26'0 0.0
2014-Jul-27 13:31N 37°45' E 023°26'21 6.6
2014-Jul-27 10:21N 37°24' E 023°30'4 4.4
2014-Jul-27 09:32N 37°21' E 023°28'12 5.7
2014-Jul-27 07:21N 37°33' E 023°33'1011.9
2014-Jul-27 06:30N 37°43' E 023°34'1111.7
2014-Jul-27 05:33N 37°53' E 023°39'3 0.3
2014-Jul-26 16:33N 37°56' E 023°41'1211.9
2014-Jul-26 15:33N 37°49' E 023°29'5 5.0
2014-Jul-26 14:33N 37°45' E 023°26'0 0.0
2014-Jul-26 13:33N 37°45' E 023°26'6 6.2
2014-Jul-26 12:33N 37°39' E 023°25'9 1.4
2014-Jul-26 06:24N 37°44' E 023°34'1011.5
2014-Jul-26 05:33N 37°53' E 023°39'3 3.3
2014-Jul-26 04:33N 37°56' E 023°41'0 0.0
2014-Jul-25 16:33N 37°56' E 023°41'1211.8
2014-Jul-25 15:33N 37°49' E 023°29'11 3.6
2014-Jul-25 12:31N 37°38' E 023°25'17 2.4
2014-Jul-25 05:33N 37°52' E 023°38'5 4.8
2014-Jul-25 04:33N 37°56' E 023°41'0 0.0
2014-Jul-24 16:33N 37°56' E 023°41'1111.1
2014-Jul-24 15:33N 37°49' E 023°30'6 5.5
2014-Jul-24 14:31N 37°45' E 023°26'0 0.0
2014-Jul-24 13:33N 37°45' E 023°26'6 6.3
2014-Jul-24 12:33N 37°38' E 023°25'16 2.3
2014-Jul-24 05:31N 37°51' E 023°38'5 5.5
2014-Jul-24 04:33N 37°56' E 023°41'3 0.2
2014-Jul-23 16:33N 37°54' E 023°38'1212.0
2014-Jul-23 15:33N 37°47' E 023°26'2 2.0
2014-Jul-23 14:30N 37°45' E 023°26'0 0.0
2014-Jul-23 13:33N 37°45' E 023°26'8 7.6
2014-Jul-23 12:33N 37°37' E 023°26'10 1.6
2014-Jul-23 06:10N 37°45' E 023°35'711.7
2014-Jul-23 05:33N 37°52' E 023°38'5 4.9
2014-Jul-23 04:30N 37°56' E 023°41'0 0.0
2014-Jul-22 17:11N 37°56' E 023°41'2 2.9
2014-Jul-22 16:33N 37°55' E 023°39'1111.3
2014-Jul-22 15:33N 37°48' E 023°28'4 3.8
2014-Jul-22 14:33N 37°45' E 023°26'0 0.0
2014-Jul-22 13:31N 37°45' E 023°26'10 7.8
2014-Jul-22 12:12N 37°35' E 023°25'10 5.4
2014-Jul-22 10:23N 37°26' E 023°32'  
Track history (hours):
 
Tides and Currents Weather Stations Pressure Air Temp Water Temp Dewpoint Dewpoint Depression Visibility Wind Speed Wind Dir Waves Ship Positions

Platitera Tonouranon

Last reported at 2014-Aug-01 06:32 UTC. Time now 2014-Aug-01 09:48 UTC.
Position N 37°45' E 023°34'.

Length 55 m; draft 3.8 m.

Type: Ship (hazmat cat A). MMSI: 237038200.

Date/timePositionNaut miles runAvg speedWind from/ knotsBaromVisibWave heightAir tempDewpointWater temp
2014-Aug-01 06:32N 37°45' E 023°34'1010.5
2014-Aug-01 05:33N 37°54' E 023°39'3 2.6
2014-Aug-01 04:32N 37°56' E 023°41'2 0.2
2014-Jul-31 16:33N 37°54' E 023°39'1111.2
2014-Jul-31 15:33N 37°48' E 023°28'3 1.6
2014-Jul-31 13:25N 37°45' E 023°26'10 9.3
2014-Jul-31 12:18N 37°34' E 023°26'10 5.5
2014-Jul-31 10:26N 37°25' E 023°32'20 4.8
2014-Jul-31 06:15N 37°45' E 023°36'811.1
2014-Jul-31 05:33N 37°52' E 023°39'4 4.3
2014-Jul-31 04:33N 37°56' E 023°41'2 0.2
2014-Jul-30 16:33N 37°54' E 023°39'1211.9
2014-Jul-30 15:33N 37°47' E 023°27'3 2.8
2014-Jul-30 14:33N 37°45' E 023°26'0 0.0
2014-Jul-30 13:31N 37°45' E 023°26'9 8.6
2014-Jul-30 12:30N 37°36' E 023°26'6 1.0
2014-Jul-30 07:04N 37°36' E 023°33'611.9
2014-Jul-30 06:32N 37°43' E 023°35'1010.5
2014-Jul-30 05:33N 37°52' E 023°39'4 4.0
2014-Jul-30 04:33N 37°56' E 023°41'2 0.2
2014-Jul-29 16:33N 37°55' E 023°39'1212.1
2014-Jul-29 15:33N 37°47' E 023°27'3 2.6
2014-Jul-29 14:33N 37°45' E 023°26'0 0.0
2014-Jul-29 13:28N 37°45' E 023°26'7 7.7
2014-Jul-29 12:33N 37°38' E 023°26'8 1.3
2014-Jul-29 06:33N 37°43' E 023°33'1110.5
2014-Jul-29 05:33N 37°53' E 023°37'4 4.2
2014-Jul-29 04:33N 37°56' E 023°41'2 0.1
2014-Jul-28 16:33N 37°55' E 023°39'1212.1
2014-Jul-28 15:33N 37°48' E 023°28'3 1.6
2014-Jul-28 13:31N 37°45' E 023°26'8 7.9
2014-Jul-28 12:31N 37°37' E 023°26'11 5.5
2014-Jul-28 10:32N 37°27' E 023°32'18 4.2
2014-Jul-28 06:18N 37°45' E 023°35'911.6
2014-Jul-28 05:33N 37°53' E 023°38'4 4.1
2014-Jul-28 04:33N 37°56' E 023°41'0 0.0
2014-Jul-27 17:12N 37°56' E 023°41'5 7.4
2014-Jul-27 16:33N 37°53' E 023°36'1211.9
2014-Jul-27 15:33N 37°45' E 023°25'1 0.8
2014-Jul-27 14:28N 37°45' E 023°26'0 0.0
2014-Jul-27 13:31N 37°45' E 023°26'21 6.6
2014-Jul-27 10:21N 37°24' E 023°30'4 4.4
2014-Jul-27 09:32N 37°21' E 023°28'12 5.7
2014-Jul-27 07:21N 37°33' E 023°33'1011.9
2014-Jul-27 06:30N 37°43' E 023°34'1111.7
2014-Jul-27 05:33N 37°53' E 023°39'3 0.3
2014-Jul-26 16:33N 37°56' E 023°41'1211.9
2014-Jul-26 15:33N 37°49' E 023°29'5 5.0
2014-Jul-26 14:33N 37°45' E 023°26'0 0.0
2014-Jul-26 13:33N 37°45' E 023°26'6 6.2
2014-Jul-26 12:33N 37°39' E 023°25'9 1.4
2014-Jul-26 06:24N 37°44' E 023°34'1011.5
2014-Jul-26 05:33N 37°53' E 023°39'3 3.3
2014-Jul-26 04:33N 37°56' E 023°41'0 0.0
2014-Jul-25 16:33N 37°56' E 023°41'1211.8
2014-Jul-25 15:33N 37°49' E 023°29'11 3.6
2014-Jul-25 12:31N 37°38' E 023°25'17 2.4
2014-Jul-25 05:33N 37°52' E 023°38'5 4.8
2014-Jul-25 04:33N 37°56' E 023°41'0 0.0
2014-Jul-24 16:33N 37°56' E 023°41'1111.1
2014-Jul-24 15:33N 37°49' E 023°30'6 5.5
2014-Jul-24 14:31N 37°45' E 023°26'0 0.0
2014-Jul-24 13:33N 37°45' E 023°26'6 6.3
2014-Jul-24 12:33N 37°38' E 023°25'16 2.3
2014-Jul-24 05:31N 37°51' E 023°38'5 5.5
2014-Jul-24 04:33N 37°56' E 023°41'3 0.2
2014-Jul-23 16:33N 37°54' E 023°38'1212.0
2014-Jul-23 15:33N 37°47' E 023°26'2 2.0
2014-Jul-23 14:30N 37°45' E 023°26'0 0.0
2014-Jul-23 13:33N 37°45' E 023°26'8 7.6
2014-Jul-23 12:33N 37°37' E 023°26'10 1.6
2014-Jul-23 06:10N 37°45' E 023°35'711.7
2014-Jul-23 05:33N 37°52' E 023°38'5 4.9
2014-Jul-23 04:30N 37°56' E 023°41'0 0.0
2014-Jul-22 17:11N 37°56' E 023°41'2 2.9
2014-Jul-22 16:33N 37°55' E 023°39'1111.3
2014-Jul-22 15:33N 37°48' E 023°28'4 3.8
2014-Jul-22 14:33N 37°45' E 023°26'0 0.0
2014-Jul-22 13:31N 37°45' E 023°26'10 7.8
2014-Jul-22 12:12N 37°35' E 023°25'10 5.4
2014-Jul-22 10:23N 37°26' E 023°32'  

Dump ship's entire track history